Sunflower Gold — JD2460 — position and weather

sailwx.info

Track history (hours):
 
Tides and Currents Weather Stations Pressure Air Temp Water Temp Dewpoint Dewpoint Depression Visibility Wind Speed Wind Dir Waves Ship Positions

Sunflower Gold

Last reported at 2015-Mar-28 12:19 UTC. Time now 2015-Mar-29 12:32 UTC.
Position N 34°34' E 134°50'.

Length 166 m; draft 5.8 m.

Type: Passenger vessel. MMSI: 431000331.

Date/timePositionNaut miles runAvg speedWind from/ knotsBaromVisibWave heightAir tempDewpointWater temp
2015-Mar-28 12:19N 34°34' E 134°50'1418.0
2015-Mar-28 11:33N 34°36' E 135°07'10 8.9
2015-Mar-28 10:25N 34°42' E 135°17'0 0.0
2015-Mar-28 09:31N 34°42' E 135°17'0 0.0
2015-Mar-28 08:31N 34°42' E 135°17'0 0.0
2015-Mar-28 07:31N 34°42' E 135°17'0 0.0
2015-Mar-28 06:31N 34°42' E 135°17'0 0.0
2015-Mar-28 05:31N 34°42' E 135°17'0 0.0
2015-Mar-28 04:25N 34°42' E 135°17'0 0.0
2015-Mar-28 03:31N 34°42' E 135°17'0 0.0
2015-Mar-28 02:25N 34°42' E 135°17'0 0.0
2015-Mar-28 01:31N 34°42' E 135°17'0 0.0
2015-Mar-28 00:31N 34°42' E 135°17'0 0.0
2015-Mar-27 23:31N 34°42' E 135°17'1 1.4
2015-Mar-27 22:33N 34°41' E 135°18'1313.0
2015-Mar-27 21:33N 34°35' E 135°04'1717.4
2015-Mar-27 20:33N 34°31' E 134°43'8 0.2
2015-Mar-26 11:24N 34°35' E 134°52'1618.6
2015-Mar-26 10:33N 34°37' E 135°11'7 7.3
2015-Mar-26 09:33N 34°42' E 135°17'0 0.0
2015-Mar-26 08:29N 34°42' E 135°17'0 0.0
2015-Mar-26 07:29N 34°42' E 135°17'0 0.0
2015-Mar-26 06:29N 34°42' E 135°17'0 0.0
2015-Mar-26 05:29N 34°42' E 135°17'0 0.0
2015-Mar-26 04:17N 34°42' E 135°17'0 0.0
2015-Mar-26 03:29N 34°42' E 135°17'0 0.0
2015-Mar-26 02:29N 34°42' E 135°17'0 0.0
2015-Mar-26 01:23N 34°42' E 135°17'0 0.0
2015-Mar-26 00:23N 34°42' E 135°17'0 0.0
2015-Mar-25 23:23N 34°42' E 135°17'0 0.0
2015-Mar-25 22:23N 34°42' E 135°17'0 0.0
2015-Mar-25 21:33N 34°42' E 135°17'1212.0
2015-Mar-25 20:33N 34°35' E 135°05'10 0.3
2015-Mar-24 11:18N 34°36' E 134°54'1519.5
2015-Mar-24 10:33N 34°36' E 135°11'7 6.6
2015-Mar-24 09:29N 34°42' E 135°17'0 0.0
2015-Mar-24 08:29N 34°42' E 135°17'0 0.0
2015-Mar-24 07:17N 34°42' E 135°17'0 0.0
2015-Mar-24 06:17N 34°42' E 135°17'0 0.0
2015-Mar-24 05:29N 34°42' E 135°17'0 0.0
2015-Mar-24 04:23N 34°42' E 135°17'0 0.0
2015-Mar-24 03:23N 34°42' E 135°17'0 0.0
2015-Mar-24 02:17N 34°42' E 135°17'0 0.0
2015-Mar-24 01:29N 34°42' E 135°17'0 0.0
2015-Mar-24 00:29N 34°42' E 135°17'0 0.0
2015-Mar-23 23:29N 34°42' E 135°17'0 0.0
2015-Mar-23 22:29N 34°42' E 135°17'0 0.0
2015-Mar-23 21:33N 34°42' E 135°17'1211.9
2015-Mar-23 20:34N 34°34' E 135°06'9 0.3
2015-Mar-22 11:16N 34°36' E 134°55'1419.3
2015-Mar-22 10:33N 34°37' E 135°12'7 6.8
2015-Mar-22 09:33N 34°42' E 135°17'0 0.0
2015-Mar-22 08:28N 34°42' E 135°17'0 0.0
2015-Mar-22 07:28N 34°42' E 135°17'0 0.0
2015-Mar-22 06:28N 34°42' E 135°17'0 0.0
2015-Mar-22 05:28N 34°42' E 135°17'0 0.0
2015-Mar-22 04:28N 34°42' E 135°17'0 0.0
2015-Mar-22 03:10N 34°42' E 135°17'0 0.0
2015-Mar-22 02:28N 34°42' E 135°17'0 0.0
2015-Mar-22 01:28N 34°42' E 135°17'0 0.0
2015-Mar-22 00:28N 34°42' E 135°17'0 0.0
2015-Mar-21 23:28N 34°42' E 135°17'2 2.1
2015-Mar-21 22:33N 34°40' E 135°18'1414.2
2015-Mar-21 21:34N 34°37' E 135°02'10 0.3
2015-Mar-20 12:23N 34°35' E 134°50'1821.2
2015-Mar-20 11:34N 34°36' E 135°11'8 7.5
2015-Mar-20 10:33N 34°42' E 135°17'0 0.0
2015-Mar-20 09:28N 34°42' E 135°17'0 0.0
2015-Mar-20 08:22N 34°42' E 135°17'0 0.0
2015-Mar-20 07:16N 34°42' E 135°17'0 0.0
2015-Mar-20 06:29N 34°42' E 135°17'0 0.0
2015-Mar-20 05:16N 34°42' E 135°17'0 0.0
2015-Mar-20 04:22N 34°42' E 135°17'0 0.0
2015-Mar-20 03:28N 34°42' E 135°17'0 0.0
2015-Mar-20 02:28N 34°42' E 135°17'0 0.0
2015-Mar-20 01:28N 34°42' E 135°17'0 0.0
2015-Mar-20 00:28N 34°42' E 135°17'0 0.0
2015-Mar-19 23:28N 34°42' E 135°17'0 0.0
2015-Mar-19 22:28N 34°42' E 135°17'0 0.0
2015-Mar-19 21:34N 34°42' E 135°17'1312.5
2015-Mar-19 20:34N 34°35' E 135°04'2017.9
2015-Mar-19 19:28N 34°30' E 134°41'  
Track history (hours):
 
Tides and Currents Weather Stations Pressure Air Temp Water Temp Dewpoint Dewpoint Depression Visibility Wind Speed Wind Dir Waves Ship Positions

Sunflower Gold

Last reported at 2015-Mar-28 12:19 UTC. Time now 2015-Mar-29 12:32 UTC.
Position N 34°34' E 134°50'.

Length 166 m; draft 5.8 m.

Type: Passenger vessel. MMSI: 431000331.

Date/timePositionNaut miles runAvg speedWind from/ knotsBaromVisibWave heightAir tempDewpointWater temp
2015-Mar-28 12:19N 34°34' E 134°50'1418.0
2015-Mar-28 11:33N 34°36' E 135°07'10 8.9
2015-Mar-28 10:25N 34°42' E 135°17'0 0.0
2015-Mar-28 09:31N 34°42' E 135°17'0 0.0
2015-Mar-28 08:31N 34°42' E 135°17'0 0.0
2015-Mar-28 07:31N 34°42' E 135°17'0 0.0
2015-Mar-28 06:31N 34°42' E 135°17'0 0.0
2015-Mar-28 05:31N 34°42' E 135°17'0 0.0
2015-Mar-28 04:25N 34°42' E 135°17'0 0.0
2015-Mar-28 03:31N 34°42' E 135°17'0 0.0
2015-Mar-28 02:25N 34°42' E 135°17'0 0.0
2015-Mar-28 01:31N 34°42' E 135°17'0 0.0
2015-Mar-28 00:31N 34°42' E 135°17'0 0.0
2015-Mar-27 23:31N 34°42' E 135°17'1 1.4
2015-Mar-27 22:33N 34°41' E 135°18'1313.0
2015-Mar-27 21:33N 34°35' E 135°04'1717.4
2015-Mar-27 20:33N 34°31' E 134°43'8 0.2
2015-Mar-26 11:24N 34°35' E 134°52'1618.6
2015-Mar-26 10:33N 34°37' E 135°11'7 7.3
2015-Mar-26 09:33N 34°42' E 135°17'0 0.0
2015-Mar-26 08:29N 34°42' E 135°17'0 0.0
2015-Mar-26 07:29N 34°42' E 135°17'0 0.0
2015-Mar-26 06:29N 34°42' E 135°17'0 0.0
2015-Mar-26 05:29N 34°42' E 135°17'0 0.0
2015-Mar-26 04:17N 34°42' E 135°17'0 0.0
2015-Mar-26 03:29N 34°42' E 135°17'0 0.0
2015-Mar-26 02:29N 34°42' E 135°17'0 0.0
2015-Mar-26 01:23N 34°42' E 135°17'0 0.0
2015-Mar-26 00:23N 34°42' E 135°17'0 0.0
2015-Mar-25 23:23N 34°42' E 135°17'0 0.0
2015-Mar-25 22:23N 34°42' E 135°17'0 0.0
2015-Mar-25 21:33N 34°42' E 135°17'1212.0
2015-Mar-25 20:33N 34°35' E 135°05'10 0.3
2015-Mar-24 11:18N 34°36' E 134°54'1519.5
2015-Mar-24 10:33N 34°36' E 135°11'7 6.6
2015-Mar-24 09:29N 34°42' E 135°17'0 0.0
2015-Mar-24 08:29N 34°42' E 135°17'0 0.0
2015-Mar-24 07:17N 34°42' E 135°17'0 0.0
2015-Mar-24 06:17N 34°42' E 135°17'0 0.0
2015-Mar-24 05:29N 34°42' E 135°17'0 0.0
2015-Mar-24 04:23N 34°42' E 135°17'0 0.0
2015-Mar-24 03:23N 34°42' E 135°17'0 0.0
2015-Mar-24 02:17N 34°42' E 135°17'0 0.0
2015-Mar-24 01:29N 34°42' E 135°17'0 0.0
2015-Mar-24 00:29N 34°42' E 135°17'0 0.0
2015-Mar-23 23:29N 34°42' E 135°17'0 0.0
2015-Mar-23 22:29N 34°42' E 135°17'0 0.0
2015-Mar-23 21:33N 34°42' E 135°17'1211.9
2015-Mar-23 20:34N 34°34' E 135°06'9 0.3
2015-Mar-22 11:16N 34°36' E 134°55'1419.3
2015-Mar-22 10:33N 34°37' E 135°12'7 6.8
2015-Mar-22 09:33N 34°42' E 135°17'0 0.0
2015-Mar-22 08:28N 34°42' E 135°17'0 0.0
2015-Mar-22 07:28N 34°42' E 135°17'0 0.0
2015-Mar-22 06:28N 34°42' E 135°17'0 0.0
2015-Mar-22 05:28N 34°42' E 135°17'0 0.0
2015-Mar-22 04:28N 34°42' E 135°17'0 0.0
2015-Mar-22 03:10N 34°42' E 135°17'0 0.0
2015-Mar-22 02:28N 34°42' E 135°17'0 0.0
2015-Mar-22 01:28N 34°42' E 135°17'0 0.0
2015-Mar-22 00:28N 34°42' E 135°17'0 0.0
2015-Mar-21 23:28N 34°42' E 135°17'2 2.1
2015-Mar-21 22:33N 34°40' E 135°18'1414.2
2015-Mar-21 21:34N 34°37' E 135°02'10 0.3
2015-Mar-20 12:23N 34°35' E 134°50'1821.2
2015-Mar-20 11:34N 34°36' E 135°11'8 7.5
2015-Mar-20 10:33N 34°42' E 135°17'0 0.0
2015-Mar-20 09:28N 34°42' E 135°17'0 0.0
2015-Mar-20 08:22N 34°42' E 135°17'0 0.0
2015-Mar-20 07:16N 34°42' E 135°17'0 0.0
2015-Mar-20 06:29N 34°42' E 135°17'0 0.0
2015-Mar-20 05:16N 34°42' E 135°17'0 0.0
2015-Mar-20 04:22N 34°42' E 135°17'0 0.0
2015-Mar-20 03:28N 34°42' E 135°17'0 0.0
2015-Mar-20 02:28N 34°42' E 135°17'0 0.0
2015-Mar-20 01:28N 34°42' E 135°17'0 0.0
2015-Mar-20 00:28N 34°42' E 135°17'0 0.0
2015-Mar-19 23:28N 34°42' E 135°17'0 0.0
2015-Mar-19 22:28N 34°42' E 135°17'0 0.0
2015-Mar-19 21:34N 34°42' E 135°17'1312.5
2015-Mar-19 20:34N 34°35' E 135°04'2017.9
2015-Mar-19 19:28N 34°30' E 134°41'  

Dump ship's entire track history